createdAt,value
2022-10-04T00:02:18.341Z,10.10
2022-10-04T00:04:57.976Z,10.40
2022-10-04T00:07:32.483Z,9.80
2022-10-04T00:10:15.596Z,10.10
2022-10-04T00:12:52.448Z,9.50
2022-10-04T00:15:27.528Z,9.60
2022-10-04T00:18:16.538Z,9.50
2022-10-04T00:20:53.130Z,10.40
2022-10-04T00:23:24.098Z,10.20
2022-10-04T00:26:02.255Z,9.40
2022-10-04T00:28:42.991Z,9.60
2022-10-04T00:31:19.331Z,9.50
2022-10-04T00:34:16.557Z,10.50
2022-10-04T00:36:55.389Z,10.10
2022-10-04T00:39:32.422Z,9.50
2022-10-04T00:42:21.510Z,10.10
2022-10-04T00:45:08.208Z,9.80
2022-10-04T00:47:48.228Z,9.00
2022-10-04T00:50:51.338Z,10.90
2022-10-04T00:53:41.863Z,10.00
2022-10-04T00:56:19.112Z,9.50
2022-10-04T00:58:57.451Z,9.80
2022-10-04T01:01:29.414Z,10.00
2022-10-04T01:04:02.441Z,9.90
2022-10-04T01:06:32.553Z,9.10
2022-10-04T01:09:09.715Z,11.00
2022-10-04T01:11:47.405Z,10.70
2022-10-04T01:14:30.695Z,10.00
2022-10-04T01:16:58.666Z,9.00
2022-10-04T01:19:31.081Z,10.70
2022-10-04T01:22:29.115Z,10.40
2022-10-04T01:24:57.633Z,10.50
2022-10-04T01:27:52.805Z,10.80
2022-10-04T01:30:21.126Z,10.00
2022-10-04T01:32:49.116Z,9.60
2022-10-04T01:35:19.191Z,10.00
2022-10-04T01:37:47.237Z,10.20
2022-10-04T01:40:15.203Z,10.00
2022-10-04T01:42:51.400Z,10.50
2022-10-04T01:45:41.303Z,10.30
2022-10-04T01:48:16.231Z,10.30
2022-10-04T01:51:18.894Z,10.10
2022-10-04T01:54:14.883Z,10.20
2022-10-04T01:57:04.531Z,9.40
2022-10-04T01:59:46.879Z,10.40
2022-10-04T02:02:23.587Z,10.10
2022-10-04T02:04:57.854Z,10.00
2022-10-04T02:07:31.960Z,10.10
2022-10-04T02:10:07.829Z,10.80
2022-10-04T02:12:38.822Z,9.30
2022-10-04T02:15:11.551Z,10.50
2022-10-04T02:17:43.171Z,10.60
2022-10-04T02:20:21.456Z,9.60
2022-10-04T02:22:56.641Z,9.50
2022-10-04T02:25:26.901Z,9.10
2022-10-04T02:27:56.985Z,8.70
2022-10-04T02:30:25.505Z,9.50
2022-10-04T02:33:00.662Z,9.80
2022-10-04T02:35:31.616Z,9.30
2022-10-04T02:38:17.660Z,8.90
2022-10-04T02:41:20.649Z,9.00
2022-10-04T02:43:59.996Z,9.10
2022-10-04T02:46:50.427Z,9.20
2022-10-04T02:49:42.042Z,9.10
2022-10-04T02:52:46.412Z,9.60
2022-10-04T02:55:27.867Z,9.20
2022-10-04T03:00:29.871Z,8.00
2022-10-04T03:03:26.838Z,8.40
2022-10-04T03:06:22.407Z,8.20
2022-10-04T03:08:59.132Z,8.30
2022-10-04T03:11:37.833Z,8.90
2022-10-04T03:14:14.695Z,8.70
2022-10-04T03:16:45.307Z,8.60
2022-10-04T03:19:16.824Z,8.90
2022-10-04T03:21:49.620Z,8.60
2022-10-04T03:24:51.815Z,7.90
2022-10-04T03:27:34.039Z,8.60
2022-10-04T03:30:02.317Z,9.10
2022-10-04T03:32:32.124Z,8.60
2022-10-04T03:35:06.156Z,9.20
2022-10-04T03:37:38.629Z,8.40
2022-10-04T03:40:10.605Z,8.70
2022-10-04T03:42:40.166Z,8.90
2022-10-04T03:45:15.737Z,9.10
2022-10-04T03:47:48.572Z,8.30
2022-10-04T03:50:29.356Z,8.20
2022-10-04T03:53:04.401Z,8.00
2022-10-04T03:55:38.803Z,8.30
2022-10-04T03:58:11.364Z,7.40
2022-10-04T04:00:53.791Z,7.70
2022-10-04T04:03:22.825Z,7.30
2022-10-04T04:05:57.839Z,7.60
2022-10-04T04:08:38.353Z,7.10
2022-10-04T04:11:14.588Z,7.30
2022-10-04T04:14:07.692Z,7.00
2022-10-04T04:16:38.286Z,7.10
2022-10-04T04:19:17.094Z,6.40
2022-10-04T04:21:46.525Z,6.40
2022-10-04T04:24:32.244Z,5.80
2022-10-04T04:27:05.393Z,6.20
2022-10-04T04:29:52.381Z,6.20
2022-10-04T04:32:23.917Z,6.60
2022-10-04T04:35:07.021Z,5.30
2022-10-04T04:37:39.497Z,5.90
2022-10-04T04:40:22.984Z,6.30
2022-10-04T04:42:52.958Z,5.60
2022-10-04T04:45:25.980Z,5.70
2022-10-04T04:47:57.353Z,5.30
2022-10-04T04:53:16.179Z,4.30
2022-10-04T04:56:03.236Z,4.60
2022-10-04T04:58:46.787Z,4.60
2022-10-04T05:01:36.455Z,4.10
2022-10-04T05:04:12.504Z,5.00
2022-10-04T05:07:01.022Z,3.30
2022-10-04T05:09:36.581Z,3.20
2022-10-04T05:12:18.047Z,3.20
2022-10-04T05:14:54.512Z,2.70
2022-10-04T05:17:27.409Z,2.70
2022-10-04T05:20:02.238Z,2.80
2022-10-04T05:22:32.372Z,2.60
2022-10-04T05:25:15.441Z,2.40
2022-10-04T05:27:45.012Z,2.40
2022-10-04T05:30:36.757Z,2.00
2022-10-04T05:33:17.346Z,2.00
2022-10-04T05:36:29.777Z,1.90
2022-10-04T05:39:07.957Z,1.70
2022-10-04T05:41:49.375Z,2.00
2022-10-04T05:47:14.612Z,1.50
2022-10-04T05:49:47.997Z,1.70
2022-10-04T05:52:28.487Z,1.70
2022-10-04T05:55:13.111Z,1.40
2022-10-04T05:58:05.837Z,1.50
2022-10-04T06:00:49.005Z,1.50
2022-10-04T06:04:01.538Z,1.60
2022-10-04T06:06:44.650Z,1.70
2022-10-04T06:09:30.331Z,1.60
2022-10-04T06:12:15.290Z,1.90
2022-10-04T06:15:09.475Z,1.70
2022-10-04T06:18:20.157Z,1.50
2022-10-04T06:21:06.403Z,1.30
2022-10-04T06:23:44.681Z,1.40
2022-10-04T06:26:19.853Z,1.30
2022-10-04T06:29:00.648Z,1.20
2022-10-04T06:31:55.359Z,1.40
2022-10-04T06:34:28.574Z,1.50
2022-10-04T06:40:01.573Z,1.50
2022-10-04T06:42:44.635Z,1.10
2022-10-04T06:45:43.520Z,1.10
2022-10-04T06:48:56.878Z,1.20
2022-10-04T06:51:45.723Z,1.60
2022-10-04T06:54:51.315Z,1.50
2022-10-04T06:57:43.951Z,1.40
2022-10-04T07:00:26.356Z,1.20
2022-10-04T07:03:04.814Z,1.10
2022-10-04T07:05:46.076Z,1.10
2022-10-04T07:08:34.133Z,1.20
2022-10-04T07:11:14.069Z,1.30
2022-10-04T07:14:03.232Z,1.10
2022-10-04T07:16:51.361Z,1.30
2022-10-04T07:19:19.331Z,1.50
2022-10-04T07:22:08.357Z,1.30
2022-10-04T07:24:45.755Z,1.60
2022-10-04T07:27:20.941Z,1.50
2022-10-04T07:29:58.171Z,1.70
2022-10-04T07:32:32.771Z,1.30
2022-10-04T07:35:47.364Z,1.80
2022-10-04T07:38:29.884Z,1.20
2022-10-04T07:41:13.270Z,1.30
2022-10-04T07:44:00.195Z,1.30
2022-10-04T07:46:53.049Z,1.20
2022-10-04T07:49:23.376Z,1.80
2022-10-04T07:52:12.210Z,1.40
2022-10-04T07:54:55.104Z,3.80
2022-10-04T07:58:07.189Z,2.50
2022-10-04T08:00:49.606Z,1.80
2022-10-04T08:04:14.390Z,1.30
2022-10-04T08:07:10.704Z,1.10
2022-10-04T08:10:25.890Z,1.00
2022-10-04T08:13:28.069Z,1.00
2022-10-04T08:16:03.318Z,1.00
2022-10-04T08:18:49.597Z,1.10
2022-10-04T08:21:32.881Z,0.80
2022-10-04T08:24:44.009Z,1.20
2022-10-04T08:27:41.330Z,1.20
2022-10-04T08:30:18.964Z,1.10
2022-10-04T08:33:17.858Z,1.00
2022-10-04T08:36:01.124Z,1.00
2022-10-04T08:38:49.350Z,1.00
2022-10-04T08:42:08.308Z,1.00
2022-10-04T08:45:12.336Z,0.90
2022-10-04T08:48:25.139Z,1.00
2022-10-04T08:51:44.510Z,1.00
2022-10-04T08:54:37.035Z,0.90
2022-10-04T08:57:18.543Z,1.10
2022-10-04T09:00:19.651Z,1.20
2022-10-04T09:03:26.885Z,0.80
2022-10-04T09:06:13.691Z,0.70
2022-10-04T09:09:50.005Z,0.80
2022-10-04T09:12:30.312Z,0.70
2022-10-04T09:15:22.622Z,0.90
2022-10-04T09:18:06.127Z,0.80
2022-10-04T09:20:57.924Z,0.90
2022-10-04T09:23:32.187Z,1.30
2022-10-04T09:26:06.582Z,0.70
2022-10-04T09:29:03.921Z,0.80
2022-10-04T09:32:30.149Z,1.00
2022-10-04T09:35:39.731Z,1.10
2022-10-04T09:38:22.773Z,1.20
2022-10-04T09:41:38.117Z,1.60
2022-10-04T09:44:46.114Z,1.80
2022-10-04T09:47:45.825Z,1.30
2022-10-04T09:50:52.011Z,1.40
2022-10-04T09:53:34.849Z,2.10
2022-10-04T09:56:43.305Z,1.50
2022-10-04T09:59:36.609Z,1.20
2022-10-04T10:02:17.928Z,1.50
2022-10-04T10:08:12.489Z,1.10
2022-10-04T10:11:34.135Z,1.60
2022-10-04T10:14:23.491Z,1.20
2022-10-04T10:17:20.653Z,1.20
2022-10-04T10:20:17.351Z,1.20
2022-10-04T10:23:22.429Z,1.20
2022-10-04T10:26:27.576Z,1.30
2022-10-04T10:29:36.793Z,1.20
2022-10-04T10:32:50.554Z,1.00
2022-10-04T10:35:27.563Z,1.50
2022-10-04T10:38:04.886Z,1.20
2022-10-04T10:40:45.458Z,1.60
2022-10-04T10:43:22.093Z,1.70
2022-10-04T10:45:56.761Z,1.20
2022-10-04T10:48:27.559Z,1.00
2022-10-04T10:51:36.670Z,0.80
2022-10-04T10:54:45.284Z,1.10
2022-10-04T10:57:55.239Z,1.00
2022-10-04T11:01:06.039Z,1.60
2022-10-04T11:03:59.604Z,0.80
2022-10-04T11:07:21.128Z,1.00
2022-10-04T11:12:47.375Z,1.40
2022-10-04T11:16:04.176Z,2.30
2022-10-04T11:18:50.280Z,1.30
2022-10-04T11:21:28.195Z,1.50
2022-10-04T11:24:21.464Z,0.90
2022-10-04T11:27:18.900Z,0.80
2022-10-04T11:30:10.624Z,1.00
2022-10-04T11:33:29.506Z,1.20
2022-10-04T11:36:36.066Z,0.90
2022-10-04T11:39:44.793Z,0.70
2022-10-04T11:42:30.654Z,0.90
2022-10-04T11:45:34.141Z,0.70
2022-10-04T11:48:48.777Z,1.00
2022-10-04T11:51:48.733Z,0.70
2022-10-04T11:54:45.822Z,2.20
2022-10-04T11:57:32.341Z,1.20
2022-10-04T12:01:05.231Z,1.00
2022-10-04T12:04:04.328Z,1.00
2022-10-04T12:06:50.301Z,0.90
2022-10-04T12:09:29.785Z,0.80
2022-10-04T12:12:37.046Z,0.90
2022-10-04T12:15:33.189Z,1.00
2022-10-04T12:18:41.170Z,0.90
2022-10-04T12:21:23.508Z,1.40
2022-10-04T12:24:47.696Z,1.20
2022-10-04T12:27:39.123Z,1.00
2022-10-04T12:33:31.072Z,0.80
2022-10-04T12:36:08.474Z,1.00
2022-10-04T12:38:46.632Z,1.30
2022-10-04T12:41:40.070Z,1.40
2022-10-04T12:45:04.768Z,1.50
2022-10-04T12:47:50.923Z,1.50
2022-10-04T12:50:45.756Z,1.20
2022-10-04T12:53:22.664Z,1.30
2022-10-04T12:56:44.396Z,1.10
2022-10-04T12:59:27.440Z,1.10
2022-10-04T13:02:47.862Z,1.20
2022-10-04T13:05:55.379Z,1.20
2022-10-04T13:08:35.825Z,1.00
2022-10-04T13:11:06.670Z,1.10
2022-10-04T13:14:14.920Z,0.80
2022-10-04T13:17:34.586Z,0.90
2022-10-04T13:20:53.074Z,1.00
2022-10-04T13:23:42.462Z,1.30
2022-10-04T13:26:25.568Z,0.90
2022-10-04T13:29:04.334Z,1.20
2022-10-04T13:32:06.992Z,1.00
2022-10-04T13:34:51.517Z,1.20
2022-10-04T13:37:31.215Z,1.10
2022-10-04T13:40:23.193Z,1.20
2022-10-04T13:43:09.244Z,1.00
2022-10-04T13:46:10.753Z,0.80
2022-10-04T13:52:16.220Z,1.20
2022-10-04T13:55:17.481Z,1.00
2022-10-04T13:57:57.472Z,0.80
2022-10-04T14:00:40.373Z,0.90
2022-10-04T14:04:04.365Z,0.90
2022-10-04T14:07:17.558Z,1.00
2022-10-04T14:10:19.169Z,1.00
2022-10-04T14:12:49.747Z,0.90
2022-10-04T14:15:54.908Z,1.00
2022-10-04T14:18:37.868Z,0.70
2022-10-04T14:21:38.605Z,0.80
2022-10-04T14:24:55.588Z,0.90
2022-10-04T14:27:44.697Z,0.80
2022-10-04T14:30:41.421Z,0.90
2022-10-04T14:33:26.287Z,0.80
2022-10-04T14:36:16.473Z,0.70
2022-10-04T14:39:16.267Z,0.70
2022-10-04T14:42:12.216Z,0.70
2022-10-04T14:45:04.992Z,0.60
2022-10-04T14:48:09.159Z,0.90
2022-10-04T14:51:11.142Z,0.80
2022-10-04T14:53:50.552Z,0.80
2022-10-04T14:56:43.988Z,1.00
2022-10-04T14:59:15.196Z,1.00
2022-10-04T15:02:08.472Z,1.00
2022-10-04T15:05:13.561Z,0.90
2022-10-04T15:08:21.671Z,0.80
2022-10-04T15:10:59.224Z,0.80
2022-10-04T15:13:40.891Z,1.00
2022-10-04T15:16:34.015Z,0.90
2022-10-04T15:19:20.115Z,0.80
2022-10-04T15:21:53.336Z,1.00
2022-10-04T15:24:27.568Z,1.10
2022-10-04T15:27:17.056Z,1.10
2022-10-04T15:30:18.927Z,1.00
2022-10-04T15:33:26.217Z,0.90
2022-10-04T15:36:29.517Z,0.90
2022-10-04T15:39:08.752Z,1.40
2022-10-04T15:42:24.918Z,1.30
2022-10-04T15:45:12.561Z,1.00
2022-10-04T15:48:30.553Z,1.30
2022-10-04T15:51:17.368Z,1.30
2022-10-04T15:54:07.040Z,1.00
2022-10-04T15:56:41.092Z,1.10
2022-10-04T15:59:27.225Z,1.10
2022-10-04T16:02:55.803Z,1.10
2022-10-04T16:05:44.595Z,1.10
2022-10-04T16:08:37.824Z,1.10
2022-10-04T16:11:58.019Z,1.50
2022-10-04T16:14:35.447Z,1.50
2022-10-04T16:17:21.596Z,1.10
2022-10-04T16:20:23.493Z,1.40
2022-10-04T16:23:32.005Z,1.30
2022-10-04T16:26:12.285Z,1.20
2022-10-04T16:29:04.608Z,1.50
2022-10-04T16:31:51.223Z,1.80
2022-10-04T16:34:41.736Z,1.60
2022-10-04T16:37:26.465Z,1.30
2022-10-04T16:40:11.848Z,1.20
2022-10-04T16:43:04.000Z,1.60
2022-10-04T16:46:09.784Z,1.40
2022-10-04T16:49:04.328Z,1.30
2022-10-04T16:51:39.183Z,1.30
2022-10-04T16:54:37.707Z,1.80
2022-10-04T16:57:15.981Z,1.30
2022-10-04T16:59:50.480Z,1.30
2022-10-04T17:03:05.267Z,1.60
2022-10-04T17:05:44.371Z,1.40
2022-10-04T17:08:30.283Z,1.80
2022-10-04T17:11:41.986Z,1.40
2022-10-04T17:17:35.281Z,1.50
2022-10-04T17:20:40.909Z,1.40
2022-10-04T17:24:06.650Z,1.70
2022-10-04T17:27:05.965Z,1.80
2022-10-04T17:30:21.810Z,1.70
2022-10-04T17:33:07.651Z,1.50
2022-10-04T17:35:56.318Z,1.40
2022-10-04T17:39:40.342Z,1.60
2022-10-04T17:43:08.919Z,1.70
2022-10-04T17:45:52.626Z,1.70
2022-10-04T17:49:00.877Z,1.90
2022-10-04T17:52:03.804Z,1.90
2022-10-04T17:55:05.044Z,1.70
2022-10-04T17:57:35.660Z,1.90
2022-10-04T18:00:20.051Z,1.50
2022-10-04T18:03:20.333Z,1.50
2022-10-04T18:05:59.255Z,1.60
2022-10-04T18:08:38.877Z,1.60
2022-10-04T18:11:22.765Z,1.90
2022-10-04T18:14:02.755Z,1.40
2022-10-04T18:16:54.784Z,1.50
2022-10-04T18:19:37.951Z,1.30
2022-10-04T18:22:26.535Z,1.40
2022-10-04T18:25:17.822Z,1.40
2022-10-04T18:28:21.802Z,1.80
2022-10-04T18:30:51.363Z,1.70
2022-10-04T18:33:29.830Z,1.80
2022-10-04T18:36:17.743Z,1.90
2022-10-04T18:39:00.948Z,2.00
2022-10-04T18:41:50.605Z,1.80
2022-10-04T18:44:44.428Z,2.30
2022-10-04T18:47:37.153Z,1.80
2022-10-04T18:50:20.169Z,2.20
2022-10-04T18:53:11.176Z,1.70
2022-10-04T18:55:50.980Z,1.90
2022-10-04T18:59:13.252Z,2.10
2022-10-04T19:02:06.954Z,1.80
2022-10-04T19:05:07.360Z,1.80
2022-10-04T19:07:49.566Z,1.80
2022-10-04T19:10:58.352Z,1.50
2022-10-04T19:14:08.560Z,1.80
2022-10-04T19:17:09.107Z,2.10
2022-10-04T19:19:41.795Z,2.00
2022-10-04T19:22:27.907Z,2.40
2022-10-04T19:25:06.203Z,2.30
2022-10-04T19:27:45.259Z,2.00
2022-10-04T19:30:25.673Z,1.60
2022-10-04T19:33:34.068Z,1.70
2022-10-04T19:36:45.594Z,1.70
2022-10-04T19:39:56.192Z,2.20
2022-10-04T19:42:46.435Z,1.80
2022-10-04T19:46:11.848Z,2.40
2022-10-04T19:48:52.620Z,2.30
2022-10-04T19:51:34.442Z,2.70
2022-10-04T19:54:16.171Z,1.60
2022-10-04T19:56:49.371Z,1.60
2022-10-04T19:59:35.903Z,1.70
2022-10-04T20:02:12.834Z,1.70
2022-10-04T20:04:42.277Z,2.40
2022-10-04T20:07:30.471Z,1.70
2022-10-04T20:10:28.219Z,1.70
2022-10-04T20:13:21.439Z,1.90
2022-10-04T20:15:55.044Z,2.00
2022-10-04T20:18:32.045Z,1.70
2022-10-04T20:21:03.525Z,2.20
2022-10-04T20:23:37.618Z,1.60
2022-10-04T20:26:09.888Z,1.80
2022-10-04T20:28:43.127Z,1.60
2022-10-04T20:31:33.055Z,2.00
2022-10-04T20:34:38.747Z,1.70
2022-10-04T20:37:09.391Z,2.40
2022-10-04T20:39:40.296Z,2.20
2022-10-04T20:42:19.773Z,2.80
2022-10-04T20:44:54.303Z,2.80
2022-10-04T20:47:35.340Z,2.90
2022-10-04T20:50:28.523Z,2.50
2022-10-04T20:53:04.229Z,2.30
2022-10-04T20:55:36.744Z,3.40
2022-10-04T20:58:37.257Z,3.30
2022-10-04T21:01:35.746Z,2.70
2022-10-04T21:04:32.130Z,3.00
2022-10-04T21:07:04.379Z,2.60
2022-10-04T21:09:35.349Z,2.00
2022-10-04T21:12:06.274Z,3.00
2022-10-04T21:14:37.810Z,2.30
2022-10-04T21:17:28.392Z,2.50
2022-10-04T21:19:56.969Z,2.50
2022-10-04T21:22:30.577Z,2.00
2022-10-04T21:25:06.582Z,1.70
2022-10-04T21:27:43.386Z,2.10
2022-10-04T21:30:17.612Z,2.50
2022-10-04T21:32:46.340Z,2.20
2022-10-04T21:35:14.262Z,2.00
2022-10-04T21:37:42.921Z,2.50
2022-10-04T21:40:13.128Z,1.70
2022-10-04T21:42:40.995Z,2.00
2022-10-04T21:45:09.627Z,1.60
2022-10-04T21:47:37.619Z,2.00
2022-10-04T21:50:06.461Z,2.40
2022-10-04T21:52:34.341Z,2.00
2022-10-04T21:55:02.357Z,1.70
2022-10-04T21:57:35.390Z,1.70
2022-10-04T22:00:05.414Z,1.80
2022-10-04T22:02:40.250Z,1.90
2022-10-04T22:05:08.766Z,1.40
2022-10-04T22:07:36.683Z,1.60
2022-10-04T22:10:05.069Z,1.60
2022-10-04T22:12:33.052Z,2.10
2022-10-04T22:15:00.927Z,2.20
2022-10-04T22:17:28.852Z,2.60
2022-10-04T22:19:56.932Z,2.20
2022-10-04T22:22:25.228Z,2.30
2022-10-04T22:24:53.236Z,3.00
2022-10-04T22:27:21.293Z,2.00
2022-10-04T22:29:49.618Z,2.40
2022-10-04T22:32:28.455Z,1.80
2022-10-04T22:35:06.638Z,2.20
2022-10-04T22:37:34.588Z,2.00
2022-10-04T22:40:03.080Z,1.80
2022-10-04T22:42:31.980Z,2.00
2022-10-04T22:45:06.332Z,2.00
2022-10-04T22:47:34.299Z,2.00
2022-10-04T22:50:02.303Z,2.70
2022-10-04T22:52:30.194Z,2.30
2022-10-04T22:55:02.120Z,2.20
2022-10-04T22:57:31.162Z,2.50
2022-10-04T22:59:59.037Z,1.80
2022-10-04T23:02:30.741Z,1.70
2022-10-04T23:05:16.632Z,1.90
2022-10-04T23:07:46.415Z,2.10
2022-10-04T23:10:19.067Z,1.60
2022-10-04T23:12:49.229Z,1.70
2022-10-04T23:15:20.991Z,1.70
2022-10-04T23:17:55.491Z,1.60
2022-10-04T23:20:24.225Z,1.70
2022-10-04T23:22:54.563Z,2.00
2022-10-04T23:25:29.693Z,2.50
2022-10-04T23:28:13.064Z,2.30
2022-10-04T23:30:41.821Z,2.10
2022-10-04T23:33:23.804Z,1.90
2022-10-04T23:35:53.673Z,2.00
2022-10-04T23:38:24.851Z,1.70
2022-10-04T23:43:25.250Z,2.00
2022-10-04T23:45:56.343Z,2.00
2022-10-04T23:48:32.378Z,1.60
2022-10-04T23:51:01.064Z,2.10
2022-10-04T23:53:33.186Z,1.90
2022-10-04T23:56:17.975Z,2.00
2022-10-04T23:58:47.495Z,2.10
